Time;durP1;ratioP1;P1;durP2;ratioP2;P2;SDS_P1;SDS_P2;PMS_P1;PMS_P2;Temp;Humidity;BMP_temperature;BMP_pressure;BME280_temperature;BME280_humidity;BME280_pressure;Samples;Min_cycle;Max_cycle;Signal;HPM_P1;HPM_P2
2021/12/30 10:55:52;;;;;;;16.80;4.17;;;;;;;13.09;100.00;101361.91;5297528;27;20379;-74
2021/12/30 10:58:25;;;;;;;15.30;4.67;;;;;;;13.12;100.00;101364.31;5282146;28;20079;-79
2021/12/30 11:01:13;;;;;;;15.80;4.37;;;;;;;13.19;100.00;101368.25;5290038;28;20457;-79
2021/12/30 11:03:59;;;;;;;13.77;4.37;;;;;;;13.26;100.00;101363.47;5288109;28;20059;-76
2021/12/30 11:06:31;;;;;;;15.80;4.63;;;;;;;13.19;100.00;101360.38;5288197;28;20020;-75
2021/12/30 11:09:22;;;;;;;17.47;4.60;;;;;;;13.33;100.00;101356.03;5288839;28;20049;-74
2021/12/30 11:11:59;;;;;;;17.47;4.87;;;;;;;13.26;100.00;101364.31;5288327;28;20037;-80
2021/12/30 11:14:35;;;;;;;14.13;3.50;;;;;;;13.39;100.00;101363.50;5286703;28;20040;-82
2021/12/30 11:17:16;;;;;;;16.80;4.97;;;;;;;13.42;100.00;101368.59;5288904;28;20119;-87
2021/12/30 11:19:56;;;;;;;14.33;5.20;;;;;;;13.39;100.00;101364.38;5288240;28;20066;-80
2021/12/30 11:22:30;;;;;;;14.67;3.70;;;;;;;13.54;100.00;101370.44;5288623;28;20081;-79
2021/12/30 11:25:05;;;;;;;12.85;4.65;;;;;;;13.59;100.00;101364.06;5289595;28;20120;-83
2021/12/30 11:27:37;;;;;;;13.00;3.60;;;;;;;13.64;100.00;101356.72;5287754;28;20048;-76
2021/12/30 11:30:14;;;;;;;12.17;4.00;;;;;;;13.73;100.00;101361.38;5286353;28;20494;-77
2021/12/30 11:32:49;;;;;;;14.57;3.57;;;;;;;13.73;99.19;101350.00;5286363;28;20028;-78
2021/12/30 11:35:22;;;;;;;;;;;;;;;13.90;100.00;101348.91;5288016;28;20489;-78
2021/12/30 11:37:55;;;;;;;9.90;4.03;;;;;;;13.81;99.63;101357.41;5288060;28;19955;-79
2021/12/30 11:40:27;;;;;;;11.77;3.67;;;;;;;13.89;98.10;101361.22;5287813;28;20025;-78
2021/12/30 11:43:10;;;;;;;16.03;4.53;;;;;;;13.86;99.27;101360.59;5288866;28;20058;-78
2021/12/30 11:45:43;;;;;;;12.67;3.83;;;;;;;14.02;96.83;101366.53;5287099;28;20110;-77
2021/12/30 11:48:20;;;;;;;11.80;3.17;;;;;;;14.12;97.45;101361.47;5286882;28;20024;-76
2021/12/30 11:51:15;;;;;;;13.33;4.53;;;;;;;14.14;99.16;101364.00;5283569;28;20029;-79
2021/12/30 11:53:47;;;;;;;11.90;3.30;;;;;;;14.11;96.20;101351.91;5286369;28;20056;-78
2021/12/30 11:56:22;;;;;;;11.43;3.70;;;;;;;14.14;96.16;101356.94;5286485;28;20031;-77
2021/12/30 11:58:56;;;;;;;9.63;2.97;;;;;;;14.17;96.27;101357.69;5286047;28;20070;-75
2021/12/30 12:01:30;;;;;;;13.05;3.47;;;;;;;14.26;95.53;101368.44;5287183;28;20495;-76
2021/12/30 12:04:09;;;;;;;7.93;3.15;;;;;;;14.31;95.52;101360.25;5286283;28;20043;-76
2021/12/30 12:06:42;;;;;;;10.53;5.00;;;;;;;14.25;95.94;101361.50;5274511;28;20516;-78
2021/12/30 12:09:19;;;;;;;12.73;3.10;;;;;;;14.29;94.55;101362.16;5272326;28;20107;-77
2021/12/30 12:11:56;;;;;;;18.10;5.40;;;;;;;14.15;94.75;101363.91;5273575;28;20078;-77
2021/12/30 12:14:30;;;;;;;11.60;2.57;;;;;;;14.20;94.52;101374.16;5271484;28;20677;-78
2021/12/30 12:17:05;;;;;;;9.70;3.63;;;;;;;14.21;94.23;101370.56;5271514;28;20086;-77
2021/12/30 12:19:43;;;;;;;13.27;3.57;;;;;;;14.11;95.43;101377.38;5270410;28;20020;-78
2021/12/30 12:22:18;;;;;;;13.70;2.83;;;;;;;14.14;95.48;101385.06;5254102;28;20025;-79
2021/12/30 12:24:51;;;;;;;14.77;3.85;;;;;;;14.00;96.24;101378.94;5272072;28;20028;-78
2021/12/30 12:27:22;;;;;;;10.57;3.07;;;;;;;14.07;95.61;101381.19;5272526;28;20032;-83
2021/12/30 12:29:57;;;;;;;10.90;3.27;;;;;;;14.05;95.96;101393.59;5273538;28;20024;-82
2021/12/30 12:32:31;;;;;;;13.80;3.87;;;;;;;14.06;96.10;101382.13;5273486;28;20020;-83
2021/12/30 12:35:21;;;;;;;8.80;3.05;;;;;;;14.02;96.65;101377.06;5272665;28;20020;-78
2021/12/30 12:37:59;;;;;;;14.87;3.73;;;;;;;14.06;95.26;101392.66;5273229;28;20035;-78
2021/12/30 12:40:40;;;;;;;9.33;4.37;;;;;;;14.11;95.49;101395.81;5272542;28;20028;-78
2021/12/30 12:43:24;;;;;;;13.53;2.90;;;;;;;14.08;96.14;101381.09;5272574;28;20386;-80
2021/12/30 12:45:57;;;;;;;;;;;;;;;14.26;95.84;101380.81;5274299;28;20042;-81
2021/12/30 12:48:31;;;;;;;10.60;3.17;;;;;;;14.18;95.22;101383.09;5273990;28;19912;-81
2021/12/30 12:51:15;;;;;;;10.73;3.25;;;;;;;14.13;95.65;101383.41;5272523;28;20379;-80
2021/12/30 12:53:49;;;;;;;11.37;2.87;;;;;;;14.11;95.33;101385.28;5270803;28;20187;-80
2021/12/30 12:56:27;;;;;;;13.20;3.88;;;;;;;14.21;94.23;101396.91;5272337;28;20025;-81
2021/12/30 12:59:11;;;;;;;10.83;3.37;;;;;;;14.15;94.76;101379.69;5272567;28;20120;-87
2021/12/30 13:01:46;;;;;;;9.70;3.20;;;;;;;14.13;93.44;101386.03;5271934;28;20039;-83
2021/12/30 13:04:18;;;;;;;9.70;2.53;;;;;;;14.21;92.69;101386.34;5272057;28;20028;-84
2021/12/30 13:06:49;;;;;;;10.17;3.67;;;;;;;14.15;94.23;101398.13;5268384;28;20017;-82
2021/12/30 13:09:22;;;;;;;13.37;3.13;;;;;;;14.19;93.09;101404.06;5271818;28;20028;-85
2021/12/30 13:11:53;;;;;;;8.27;2.83;;;;;;;14.14;93.94;101408.78;5271277;28;20023;-86
2021/12/30 13:14:29;;;;;;;8.97;2.83;;;;;;;14.12;93.66;101405.44;5270387;28;20024;-81
2021/12/30 13:17:03;;;;;;;10.53;2.63;;;;;;;14.02;93.44;101390.22;5268789;28;20480;-85
2021/12/30 13:19:38;;;;;;;;;;;;;;;14.20;96.30;101413.66;5265517;28;20024;-80
2021/12/30 13:22:11;;;;;;;;;;;;;;;14.21;96.50;101419.75;5271258;28;19920;-79
2021/12/30 13:24:54;;;;;;;9.10;2.90;;;;;;;14.08;95.17;101407.41;5287636;28;19932;-84
2021/12/30 13:27:34;;;;;;;6.73;2.50;;;;;;;14.09;94.65;101410.88;5276644;28;20017;-82
2021/12/30 13:30:17;;;;;;;13.07;3.63;;;;;;;14.19;93.11;101411.94;5273117;28;20020;-80
2021/12/30 13:32:52;;;;;;;7.83;2.80;;;;;;;14.18;92.81;101412.06;5273493;28;20025;-78
2021/12/30 13:35:27;;;;;;;8.63;2.60;;;;;;;14.10;93.26;101404.69;5273234;28;20086;-79
2021/12/30 13:38:02;;;;;;;7.22;2.28;;;;;;;14.12;93.60;101413.34;5266331;28;20020;-76
2021/12/30 13:40:39;;;;;;;5.47;2.23;;;;;;;14.08;93.44;101407.41;5286138;28;20284;-77
2021/12/30 13:43:16;;;;;;;7.33;2.37;;;;;;;14.08;93.75;101410.06;5270265;28;20028;-82
2021/12/30 13:45:52;;;;;;;9.13;2.87;;;;;;;14.16;92.84;101414.78;5272266;28;20041;-76
2021/12/30 13:48:29;;;;;;;8.33;2.73;;;;;;;14.06;94.13;101414.56;5269915;28;20055;-75
2021/12/30 13:51:08;;;;;;;8.93;2.53;;;;;;;14.13;93.03;101421.13;5271470;28;20040;-74
2021/12/30 13:53:45;;;;;;;12.67;3.43;;;;;;;14.10;93.09;101426.56;5271263;28;20090;-75
2021/12/30 13:56:25;;;;;;;4.43;2.13;;;;;;;14.02;94.41;101423.59;5270403;28;20433;-84
2021/12/30 13:59:00;;;;;;;5.83;2.70;;;;;;;14.01;93.21;101420.16;5270998;28;20028;-81
2021/12/30 14:01:33;;;;;;;7.50;2.67;;;;;;;13.99;93.55;101424.66;5272910;28;20020;-84
2021/12/30 14:04:10;;;;;;;9.93;2.93;;;;;;;14.01;93.66;101433.31;5278297;28;20028;-84
2021/12/30 14:06:44;;;;;;;9.87;2.43;;;;;;;14.06;93.83;101440.06;5273874;28;20086;-85
2021/12/30 14:09:17;;;;;;;7.80;2.85;;;;;;;13.99;93.92;101429.94;5277303;28;20031;-82
2021/12/30 14:11:53;;;;;;;9.77;2.37;;;;;;;13.99;94.76;101435.19;5275042;28;20494;-82
2021/12/30 14:14:34;;;;;;;7.03;2.50;;;;;;;13.98;94.31;101433.50;5273685;28;20024;-84
2021/12/30 14:17:05;;;;;;;8.60;3.00;;;;;;;13.98;94.88;101427.41;5272084;28;20056;-81
2021/12/30 14:19:39;;;;;;;7.17;2.40;;;;;;;13.96;95.24;101421.38;5271019;28;20063;-82
2021/12/30 14:22:10;;;;;;;8.90;2.15;;;;;;;13.97;93.97;101410.75;5269876;28;20062;-77
2021/12/30 14:24:42;;;;;;;11.50;2.47;;;;;;;13.95;95.00;101423.16;5271385;28;20360;-76
2021/12/30 14:27:25;;;;;;;7.83;2.23;;;;;;;13.98;94.51;101425.59;5268944;28;20054;-75
2021/12/30 14:29:56;;;;;;;5.30;1.97;;;;;;;13.98;94.37;101422.97;5270856;28;20460;-81
2021/12/30 14:32:27;;;;;;;6.97;2.43;;;;;;;13.99;94.02;101429.94;5269818;28;20130;-80
2021/12/30 14:35:06;;;;;;;8.40;2.23;;;;;;;14.01;94.43;101443.84;5270782;28;20036;-80
2021/12/30 14:37:39;;;;;;;8.13;2.47;;;;;;;13.98;94.12;101444.03;5269209;28;20182;-80
2021/12/30 14:40:17;;;;;;;6.55;2.20;;;;;;;14.03;94.32;101449.84;5271315;28;20598;-80
2021/12/30 14:42:48;;;;;;;7.07;2.23;;;;;;;14.00;94.40;101442.13;5275854;28;20058;-80
2021/12/30 14:45:19;;;;;;;8.70;2.63;;;;;;;14.00;94.04;101449.19;5270089;28;20031;-80
2021/12/30 14:48:00;;;;;;;6.03;1.83;;;;;;;13.95;95.07;101454.75;5269431;28;20029;-80
2021/12/30 14:50:33;;;;;;;7.27;1.80;;;;;;;13.92;95.02;101449.69;5269064;28;20044;-81
2021/12/30 14:53:16;;;;;;;8.93;2.23;;;;;;;14.00;95.75;101460.56;5271040;28;20012;-80
2021/12/30 14:55:49;;;;;;;7.23;1.70;;;;;;;13.93;95.20;101461.91;5270417;28;20097;-80
2021/12/30 14:58:20;;;;;;;5.50;2.77;;;;;;;13.88;96.12;101470.13;5270882;28;20489;-80
2021/12/30 15:00:52;;;;;;;7.80;2.20;;;;;;;13.95;95.40;101462.66;5270076;28;20068;-80
2021/12/30 15:03:23;;;;;;;11.80;3.83;;;;;;;13.96;95.23;101472.28;5270308;28;20518;-80
2021/12/30 15:05:56;;;;;;;6.40;2.93;;;;;;;14.03;94.57;101473.53;5270127;28;20099;-79
2021/12/30 15:08:28;;;;;;;5.00;1.83;;;;;;;14.01;95.74;101479.88;5268811;28;20033;-79
2021/12/30 15:10:59;;;;;;;7.47;2.10;;;;;;;13.85;95.74;101458.94;5271190;28;20035;-79
2021/12/30 15:13:30;;;;;;;11.97;2.93;;;;;;;13.93;96.40;101477.72;5269617;28;20017;-79
2021/12/30 15:16:02;;;;;;;9.67;2.60;;;;;;;13.91;96.31;101475.19;5268896;28;20025;-79
2021/12/30 15:18:34;;;;;;;8.60;2.60;;;;;;;13.93;96.16;101475.06;5286197;28;20088;-78
2021/12/30 15:21:06;;;;;;;8.60;2.43;;;;;;;14.04;96.08;101490.19;5273766;28;20498;-79
2021/12/30 15:23:37;;;;;;;10.00;2.53;;;;;;;13.93;96.36;101476.88;5269859;28;20055;-79
2021/12/30 15:26:08;;;;;;;6.03;2.07;;;;;;;13.97;96.83;101496.78;5268746;28;20035;-79
2021/12/30 15:28:40;;;;;;;8.00;2.63;;;;;;;13.90;97.34;101493.72;5270389;28;20025;-79
2021/12/30 15:31:11;;;;;;;7.67;3.00;;;;;;;13.87;97.81;101489.50;5268457;28;20109;-80
2021/12/30 15:33:45;;;;;;;7.67;3.33;;;;;;;13.95;97.39;101502.16;5271001;28;20060;-78
2021/12/30 15:36:16;;;;;;;8.35;2.80;;;;;;;13.88;98.30;101506.97;5271540;28;20032;-78
2021/12/30 15:38:47;;;;;;;6.67;3.00;;;;;;;13.87;98.60;101512.34;5268679;28;20107;-74
2021/12/30 15:41:18;;;;;;;7.93;3.70;;;;;;;13.77;98.98;101498.94;5271337;28;20028;-76
2021/12/30 15:43:50;;;;;;;9.90;4.20;;;;;;;13.85;99.35;101516.84;5272581;28;20024;-76
2021/12/30 15:46:21;;;;;;;7.07;3.60;;;;;;;13.78;99.12;101509.34;5272462;28;20031;-76
2021/12/30 15:48:52;;;;;;;9.23;3.30;;;;;;;13.74;100.00;101522.78;5269584;28;20016;-76
2021/12/30 15:51:24;;;;;;;7.93;3.50;;;;;;;13.88;99.22;101524.56;5271078;28;20037;-82
2021/12/30 15:53:55;;;;;;;9.70;4.07;;;;;;;13.78;99.68;101521.66;5273206;28;20474;-79
2021/12/30 15:56:26;;;;;;;7.50;3.40;;;;;;;13.69;100.00;101533.63;5272102;28;20024;-81
2021/12/30 15:58:58;;;;;;;10.57;3.57;;;;;;;13.76;100.00;101528.81;5274184;28;20059;-78
2021/12/30 16:01:29;;;;;;;8.37;3.73;;;;;;;13.76;100.00;101529.66;5272411;28;20333;-76
2021/12/30 16:04:00;;;;;;;11.97;3.50;;;;;;;13.70;100.00;101529.19;5272763;28;20032;-77
2021/12/30 16:06:31;;;;;;;12.70;3.57;;;;;;;13.74;100.00;101546.47;5286323;28;20364;-74
2021/12/30 16:09:05;;;;;;;7.97;3.47;;;;;;;13.71;100.00;101552.78;5273020;28;20086;-74
2021/12/30 16:11:36;;;;;;;8.73;4.07;;;;;;;13.79;100.00;101561.06;5271436;28;20072;-75
2021/12/30 16:14:08;;;;;;;7.47;3.80;;;;;;;13.73;100.00;101561.44;5273533;28;20495;-74
2021/12/30 16:16:41;;;;;;;12.60;4.87;;;;;;;13.66;100.00;101560.13;5272125;28;20035;-74
2021/12/30 16:19:12;;;;;;;10.37;4.73;;;;;;;13.68;100.00;101558.25;5271935;28;20036;-74
2021/12/30 16:21:44;;;;;;;9.70;4.80;;;;;;;13.58;100.00;101557.13;5270726;28;20030;-74
2021/12/30 16:24:15;;;;;;;9.10;4.47;;;;;;;13.59;100.00;101549.13;5272096;28;20033;-74
2021/12/30 16:26:46;;;;;;;9.60;4.17;;;;;;;13.60;100.00;101552.59;5273069;28;20029;-74
2021/12/30 16:29:17;;;;;;;9.17;4.77;;;;;;;13.53;100.00;101560.88;5271955;28;20028;-74
2021/12/30 16:31:49;;;;;;;8.33;4.67;;;;;;;13.65;100.00;101555.78;5272144;28;20020;-74
2021/12/30 16:34:21;;;;;;;10.63;4.30;;;;;;;13.63;100.00;101562.97;5275954;28;20032;-74
2021/12/30 16:36:52;;;;;;;9.00;4.60;;;;;;;13.50;100.00;101571.56;5273057;28;20024;-84
2021/12/30 16:39:26;;;;;;;7.47;4.43;;;;;;;13.50;100.00;101563.66;5272793;28;21348;-89
2021/12/30 16:41:57;;;;;;;9.13;4.93;;;;;;;13.57;100.00;101579.09;5273234;28;20017;-87
2021/12/30 16:44:29;;;;;;;6.73;3.87;;;;;;;13.58;100.00;101583.44;5272120;28;20020;-89
2021/12/30 16:47:04;;;;;;;5.87;4.00;;;;;;;13.66;100.00;101576.78;5272985;28;20017;-84
2021/12/30 16:49:35;;;;;;;11.10;4.87;;;;;;;13.57;100.00;101582.59;5274619;28;20033;-82
2021/12/30 16:52:07;;;;;;;9.33;4.87;;;;;;;13.55;100.00;101590.59;5272540;28;20506;-83
2021/12/30 16:54:38;;;;;;;12.73;5.73;;;;;;;13.60;100.00;101599.97;5267577;28;20743;-81
2021/12/30 16:57:10;;;;;;;7.63;4.37;;;;;;;13.58;100.00;101591.34;5257738;28;20435;-81
2021/12/30 16:59:43;;;;;;;7.50;4.63;;;;;;;13.58;100.00;101593.97;5269222;28;20033;-84
2021/12/30 17:02:14;;;;;;;8.77;5.17;;;;;;;13.58;100.00;101607.13;5259903;28;20518;-81
2021/12/30 17:04:45;;;;;;;9.77;4.93;;;;;;;13.55;100.00;101598.47;5258873;28;20058;-79
2021/12/30 17:07:17;;;;;;;11.23;5.10;;;;;;;13.51;100.00;101604.00;5258934;28;20029;-83
2021/12/30 17:09:48;;;;;;;8.93;5.53;;;;;;;13.48;100.00;101597.13;5259535;28;20135;-80
2021/12/30 17:12:21;;;;;;;9.93;5.07;;;;;;;13.46;100.00;101595.53;5258250;28;20039;-81
2021/12/30 17:14:53;;;;;;;9.50;5.10;;;;;;;13.48;100.00;101598.91;5258406;28;20044;-81
2021/12/30 17:17:24;;;;;;;13.47;6.17;;;;;;;13.43;100.00;101599.19;5259205;28;20024;-84
2021/12/30 17:19:55;;;;;;;8.30;4.67;;;;;;;13.46;100.00;101604.25;5260581;28;20431;-87
2021/12/30 17:22:26;;;;;;;6.50;4.60;;;;;;;13.54;100.00;101603.84;5260288;28;20037;-86
2021/12/30 17:24:58;;;;;;;8.10;5.03;;;;;;;13.47;100.00;101603.34;5259076;28;20083;-81
2021/12/30 17:27:29;;;;;;;9.87;5.10;;;;;;;13.44;100.00;101592.97;5263051;28;20040;-78
2021/12/30 17:30:00;;;;;;;10.27;5.03;;;;;;;13.37;100.00;101589.03;5271192;28;20376;-77
2021/12/30 17:32:32;;;;;;;9.13;5.40;;;;;;;13.45;100.00;101607.84;5270408;28;20437;-77
2021/12/30 17:35:05;;;;;;;8.37;5.93;;;;;;;13.39;100.00;101616.09;5270618;28;20436;-77
2021/12/30 17:37:36;;;;;;;8.73;5.70;;;;;;;13.42;100.00;101605.41;5269330;28;20138;-77
2021/12/30 17:40:09;;;;;;;8.47;5.83;;;;;;;13.36;100.00;101600.47;5272171;28;20507;-77
2021/12/30 17:42:44;;;;;;;13.47;6.33;;;;;;;13.42;100.00;101605.41;5268766;28;20733;-77
2021/12/30 17:45:17;;;;;;;12.27;6.00;;;;;;;13.35;100.00;101604.06;5269803;28;20475;-78
2021/12/30 17:47:49;;;;;;;10.60;5.53;;;;;;;13.33;100.00;101614.69;5270164;28;20090;-77
2021/12/30 17:50:26;;;;;;;7.67;5.50;;;;;;;13.38;100.00;101622.28;5269643;28;20036;-78
2021/12/30 17:53:00;;;;;;;9.90;6.33;;;;;;;13.38;100.00;101627.56;5267897;28;20052;-78
2021/12/30 17:55:34;;;;;;;7.38;5.80;;;;;;;13.30;100.00;101622.72;5268157;28;20419;-79
2021/12/30 17:58:08;;;;;;;7.37;5.67;;;;;;;13.34;100.00;101623.41;5270900;28;20748;-79
2021/12/30 18:00:41;;;;;;;11.43;6.37;;;;;;;13.32;100.00;101620.88;5266841;28;20071;-81
2021/12/30 18:03:13;;;;;;;9.50;6.67;;;;;;;13.27;100.00;101628.19;5269779;28;20684;-82
2021/12/30 18:05:45;;;;;;;8.27;5.73;;;;;;;13.23;100.00;101631.94;5269794;28;20060;-81
2021/12/30 18:08:17;;;;;;;34.90;28.53;;;;;;;13.22;100.00;101628.47;5266297;28;20703;-81
2021/12/30 18:10:48;;;;;;;19.80;17.30;;;;;;;13.22;100.00;101630.22;5271204;28;20033;-82
2021/12/30 18:13:19;;;;;;;11.27;9.80;;;;;;;13.11;100.00;101628.25;5269691;28;20032;-80
2021/12/30 18:15:51;;;;;;;9.77;5.80;;;;;;;13.17;100.00;101635.78;5270636;28;20124;-81
2021/12/30 18:18:23;;;;;;;7.80;6.27;;;;;;;13.16;100.00;101647.25;5269526;28;20044;-79
2021/12/30 18:20:54;;;;;;;8.73;6.33;;;;;;;13.16;100.00;101628.84;5267786;28;20103;-77
2021/12/30 18:23:25;;;;;;;10.60;6.90;;;;;;;13.16;100.00;101641.97;5268339;28;20032;-77
2021/12/30 18:25:56;;;;;;;9.20;7.20;;;;;;;13.15;100.00;101649.03;5270953;28;20032;-77
2021/12/30 18:28:28;;;;;;;11.67;6.83;;;;;;;13.07;100.00;101646.81;5269203;28;20534;-76
2021/12/30 18:31:02;;;;;;;7.43;6.60;;;;;;;13.04;100.00;101649.63;5271223;28;20025;-80
2021/12/30 18:33:34;;;;;;;8.65;6.38;;;;;;;13.09;100.00;101666.94;5270773;28;20033;-81
2021/12/30 18:36:05;;;;;;;8.87;6.73;;;;;;;13.10;100.00;101664.22;5269315;28;20089;-77
2021/12/30 18:38:37;;;;;;;8.00;7.20;;;;;;;13.10;100.00;101656.31;5268516;28;20074;-76
2021/12/30 18:41:08;;;;;;;10.13;7.43;;;;;;;13.05;100.00;101661.00;5270311;28;20036;-76
2021/12/30 18:43:41;;;;;;;12.67;7.37;;;;;;;13.11;100.00;101665.06;5267256;28;20021;-77
2021/12/30 18:46:12;;;;;;;8.40;7.53;;;;;;;13.03;100.00;101660.25;5270225;28;20020;-76
2021/12/30 18:48:43;;;;;;;11.47;8.43;;;;;;;13.15;100.00;101661.31;5268301;28;20035;-78
2021/12/30 18:51:16;;;;;;;12.37;8.43;;;;;;;13.06;100.00;101674.06;5265120;28;20093;-80
2021/12/30 18:53:48;;;;;;;12.53;9.30;;;;;;;13.09;100.00;101661.69;5267918;28;20041;-79
2021/12/30 18:56:20;;;;;;;15.83;9.90;;;;;;;13.05;100.00;101668.91;5269176;28;20483;-76
2021/12/30 18:58:51;;;;;;;13.53;9.70;;;;;;;12.97;100.00;101661.44;5269551;28;20020;-77
2021/12/30 19:01:22;;;;;;;13.30;9.07;;;;;;;13.02;100.00;101662.00;5267926;28;20013;-77
2021/12/30 19:03:54;;;;;;;12.53;8.40;;;;;;;13.01;100.00;101665.59;5269505;28;20039;-75
2021/12/30 19:06:25;;;;;;;11.00;8.67;;;;;;;13.03;100.00;101674.25;5268351;28;20471;-76
2021/12/30 19:08:57;;;;;;;15.87;9.17;;;;;;;12.99;100.00;101664.81;5269125;28;20025;-77
2021/12/30 19:11:28;;;;;;;8.77;7.33;;;;;;;13.01;100.00;101670.84;5267420;28;20487;-79
2021/12/30 19:13:59;;;;;;;13.37;7.33;;;;;;;12.88;100.00;101654.91;5269089;28;20020;-79
2021/12/30 19:16:30;;;;;;;11.57;7.10;;;;;;;13.05;100.00;101671.53;5271004;28;20060;-81
2021/12/30 19:19:02;;;;;;;9.97;6.53;;;;;;;13.07;100.00;101681.00;5274171;28;20379;-78
2021/12/30 19:21:34;;;;;;;11.87;6.13;;;;;;;13.05;100.00;101671.53;5272341;28;20111;-81
2021/12/30 19:24:05;;;;;;;7.00;5.47;;;;;;;13.05;100.00;101672.38;5273881;28;20159;-79
2021/12/30 19:26:37;;;;;;;6.63;5.80;;;;;;;13.07;100.00;101680.19;5273163;28;20453;-83
2021/12/30 19:29:08;;;;;;;9.60;5.53;;;;;;;13.11;100.00;101680.84;5274319;28;20059;-76
2021/12/30 19:31:39;;;;;;;10.60;5.93;;;;;;;13.01;100.00;101667.38;5273314;28;20483;-76
2021/12/30 19:34:10;;;;;;;11.60;5.13;;;;;;;13.03;100.00;101676.88;5273058;28;20078;-78
2021/12/30 19:36:42;;;;;;;9.67;6.67;;;;;;;13.03;100.00;101674.25;5271883;28;20032;-79
2021/12/30 19:39:14;;;;;;;9.00;5.80;;;;;;;13.00;100.00;101674.44;5269001;28;20025;-77
2021/12/30 19:41:45;;;;;;;9.90;6.27;;;;;;;12.98;100.00;101670.16;5272457;28;20012;-79
2021/12/30 19:44:17;;;;;;;11.70;5.63;;;;;;;13.07;100.00;101686.25;5273646;28;20252;-76
2021/12/30 19:46:48;;;;;;;8.47;5.83;;;;;;;13.07;100.00;101688.91;5269035;28;20047;-78
2021/12/30 19:49:20;;;;;;;10.03;5.63;;;;;;;13.03;100.00;101684.75;5273474;28;20036;-77
2021/12/30 19:51:52;;;;;;;9.67;6.57;;;;;;;13.06;100.00;101684.59;5273864;28;20023;-74
2021/12/30 19:54:23;;;;;;;11.87;6.50;;;;;;;13.05;100.00;101690.78;5271662;28;20499;-76
2021/12/30 19:56:54;;;;;;;10.47;7.33;;;;;;;13.04;100.00;101683.81;5273948;28;20057;-75
2021/12/30 19:59:26;;;;;;;10.53;6.73;;;;;;;13.06;100.00;101691.63;5273154;28;20028;-76
2021/12/30 20:01:57;;;;;;;10.30;6.87;;;;;;;13.19;100.00;101683.88;5272985;28;20104;-76
2021/12/30 20:04:28;;;;;;;10.83;7.20;;;;;;;13.06;100.00;101688.97;5272456;28;20107;-79
2021/12/30 20:06:59;;;;;;;9.90;6.73;;;;;;;13.07;100.00;101695.97;5272626;28;20510;-81
2021/12/30 20:09:31;;;;;;;12.57;6.53;;;;;;;13.07;100.00;101696.78;5271378;28;20024;-83
2021/12/30 20:12:02;;;;;;;10.53;7.40;;;;;;;13.05;100.00;101682.91;5273662;28;20082;-78
2021/12/30 20:14:34;;;;;;;9.93;6.77;;;;;;;13.05;100.00;101701.31;5278416;28;20146;-79
2021/12/30 20:17:06;;;;;;;10.20;6.67;;;;;;;13.12;100.00;101695.69;5275525;28;20475;-79
2021/12/30 20:19:37;;;;;;;7.37;6.37;;;;;;;13.15;100.00;101708.66;5273151;28;20039;-80
2021/12/30 20:22:08;;;;;;;9.13;6.80;;;;;;;13.09;100.00;101709.00;5279932;28;20028;-87
2021/12/30 20:24:40;;;;;;;7.67;6.00;;;;;;;12.95;100.00;101702.75;5287876;28;20044;-76
2021/12/30 20:27:11;;;;;;;6.63;5.80;;;;;;;13.00;100.00;101711.25;5274408;28;20086;-76
2021/12/30 20:29:42;;;;;;;8.97;6.03;;;;;;;12.97;100.00;101707.94;5272088;28;20020;-76
2021/12/30 20:32:13;;;;;;;8.30;6.13;;;;;;;12.89;100.00;101717.09;5271721;28;20034;-85
2021/12/30 20:34:45;;;;;;;10.83;6.37;;;;;;;12.92;100.00;101716.06;5272553;28;20056;-80
2021/12/30 20:37:16;;;;;;;7.70;5.97;;;;;;;12.95;100.00;101715.91;5280934;28;20706;-79
2021/12/30 20:39:47;;;;;;;9.07;6.73;;;;;;;12.91;100.00;101715.22;5274704;28;20028;-79
2021/12/30 20:42:19;;;;;;;7.70;6.07;;;;;;;12.80;100.00;101702.69;5269663;28;20056;-84
2021/12/30 20:44:51;;;;;;;7.53;6.90;;;;;;;12.84;100.00;101724.38;5272276;28;20021;-83
2021/12/30 20:47:22;;;;;;;8.20;6.33;;;;;;;12.74;100.00;101715.31;5270799;28;20025;-87
2021/12/30 20:49:54;;;;;;;8.13;6.90;;;;;;;12.77;100.00;101730.91;5270813;28;20430;-83
2021/12/30 20:52:27;;;;;;;9.17;7.10;;;;;;;12.74;100.00;101721.41;5282735;28;20028;-79
2021/12/30 20:54:58;;;;;;;8.23;7.43;;;;;;;12.78;100.00;101722.94;5275560;28;20082;-79
2021/12/30 20:57:30;;;;;;;8.67;6.53;;;;;;;12.78;100.00;101724.72;5266238;28;20153;-77
2021/12/30 21:00:05;;;;;;;7.20;6.23;;;;;;;12.93;100.00;101733.53;5258050;28;20063;-88
2021/12/30 21:02:37;;;;;;;8.03;7.23;;;;;;;12.77;100.00;101736.16;5264446;28;20062;-78
2021/12/30 21:05:10;;;;;;;7.77;6.97;;;;;;;12.83;100.00;101751.59;5261671;28;20029;-78
2021/12/30 21:07:42;;;;;;;9.25;7.95;;;;;;;12.80;100.00;101746.50;5261177;28;20058;-78
2021/12/30 21:10:17;;;;;;;8.70;7.80;;;;;;;12.76;100.00;101742.38;5260923;28;20037;-77
2021/12/30 21:12:51;;;;;;;13.13;7.77;;;;;;;12.67;100.00;101731.41;5261644;28;20068;-78
2021/12/30 21:15:23;;;;;;;9.63;8.10;;;;;;;12.76;100.00;101734.47;5260168;28;20044;-79
2021/12/30 21:17:54;;;;;;;13.80;9.13;;;;;;;12.67;100.00;101731.41;5262193;28;20033;-77
2021/12/30 21:20:26;;;;;;;11.53;8.47;;;;;;;12.66;100.00;101732.34;5265767;28;20120;-78
2021/12/30 21:22:57;;;;;;;10.40;8.00;;;;;;;12.72;100.00;101743.47;5272384;28;20032;-78
2021/12/30 21:25:28;;;;;;;11.97;7.43;;;;;;;12.71;100.00;101747.84;5272012;28;20031;-78
2021/12/30 21:28:00;;;;;;;11.50;9.23;;;;;;;12.68;100.00;101742.78;5272469;28;20024;-82
2021/12/30 21:30:34;;;;;;;14.73;8.70;;;;;;;12.69;100.00;101741.81;5271727;28;20025;-79
2021/12/30 21:33:09;;;;;;;9.43;6.82;;;;;;;12.68;100.00;101734.88;5284476;28;20067;-77
2021/12/30 21:35:43;;;;;;;13.23;7.90;;;;;;;12.67;100.00;101738.47;5270776;28;20036;-80
2021/12/30 21:38:16;;;;;;;14.52;8.43;;;;;;;12.64;100.00;101757.84;5270047;28;20016;-72
2021/12/30 21:40:51;;;;;;;16.47;7.90;;;;;;;12.69;100.00;101752.34;5270791;28;20024;-74
2021/12/30 21:43:24;;;;;;;13.90;8.73;;;;;;;12.68;100.00;101750.66;5267745;28;20447;-75
2021/12/30 21:45:55;;;;;;;13.23;9.10;;;;;;;12.56;100.00;101734.63;5268961;28;20021;-82
2021/12/30 21:48:27;;;;;;;12.30;6.70;;;;;;;12.58;100.00;101737.19;5270988;28;20036;-77
2021/12/30 21:51:01;;;;;;;13.53;6.93;;;;;;;12.65;100.00;101742.94;5268695;28;20474;-75
2021/12/30 21:53:32;;;;;;;17.63;9.15;;;;;;;12.70;100.00;101751.44;5270278;28;20028;-76
2021/12/30 21:56:04;;;;;;;11.63;6.90;;;;;;;12.68;100.00;101743.63;5270979;28;20032;-72
2021/12/30 21:58:35;;;;;;;8.83;5.53;;;;;;;12.65;100.00;101748.19;5270303;28;20051;-73
2021/12/30 22:01:07;;;;;;;9.83;5.87;;;;;;;12.67;100.00;101735.84;5271209;28;20033;-75
2021/12/30 22:03:38;;;;;;;11.50;5.63;;;;;;;12.66;100.00;101731.50;5267469;28;20034;-76
2021/12/30 22:06:10;;;;;;;14.90;5.43;;;;;;;12.69;100.00;101740.06;5269948;28;20046;-74
2021/12/30 22:08:41;;;;;;;8.67;4.50;;;;;;;12.66;100.00;101739.38;5269382;28;20483;-74
2021/12/30 22:11:13;;;;;;;12.43;4.83;;;;;;;12.61;100.00;101723.00;5269478;28;20024;-76
2021/12/30 22:13:44;;;;;;;10.07;4.13;;;;;;;12.65;100.00;101729.81;5270281;28;20028;-75
2021/12/30 22:16:15;;;;;;;14.13;6.23;;;;;;;12.53;100.00;101724.25;5268025;28;20107;-76
2021/12/30 22:18:48;;;;;;;11.87;4.50;;;;;;;12.65;100.00;101732.44;5268649;28;20510;-79
2021/12/30 22:21:19;;;;;;;10.30;4.37;;;;;;;12.59;100.00;101717.84;5268297;28;20443;-78
2021/12/30 22:23:50;;;;;;;11.33;4.73;;;;;;;12.66;100.00;101723.59;5268890;28;20024;-77
2021/12/30 22:26:22;;;;;;;11.67;4.47;;;;;;;12.54;100.00;101719.88;5263101;28;20031;-76
2021/12/30 22:28:53;;;;;;;11.63;4.07;;;;;;;12.61;100.00;101720.38;5269006;28;20047;-75
2021/12/30 22:31:24;;;;;;;9.47;3.77;;;;;;;12.62;100.00;101717.66;5268420;28;20028;-75
2021/12/30 22:33:56;;;;;;;10.07;3.87;;;;;;;12.63;100.00;101718.53;5269720;28;20028;-74
2021/12/30 22:36:28;;;;;;;12.00;4.13;;;;;;;12.67;100.00;101714.81;5265004;28;20158;-75
2021/12/30 22:38:59;;;;;;;7.47;3.43;;;;;;;12.49;100.00;101691.22;5269500;28;20103;-77